sensor_id;sensor_type;location;lat;lon;timestamp;P1;durP1;ratioP1;P2;durP2;ratioP2
3379;SDS011;1703;51.964;7.642;2023-04-25T00:01:30;17.70;;;6.27;;
3379;SDS011;1703;51.964;7.642;2023-04-25T00:03:58;11.37;;;5.57;;
3379;SDS011;1703;51.964;7.642;2023-04-25T00:06:26;17.50;;;5.60;;
3379;SDS011;1703;51.964;7.642;2023-04-25T00:08:53;20.27;;;7.43;;
3379;SDS011;1703;51.964;7.642;2023-04-25T00:11:22;9.00;;;5.33;;
3379;SDS011;1703;51.964;7.642;2023-04-25T00:13:49;10.97;;;5.17;;
3379;SDS011;1703;51.964;7.642;2023-04-25T00:16:16;11.53;;;5.50;;
3379;SDS011;1703;51.964;7.642;2023-04-25T00:18:43;15.50;;;6.77;;
3379;SDS011;1703;51.964;7.642;2023-04-25T00:21:16;12.53;;;5.53;;
3379;SDS011;1703;51.964;7.642;2023-04-25T00:23:43;11.03;;;5.20;;
3379;SDS011;1703;51.964;7.642;2023-04-25T00:26:10;10.00;;;6.10;;
3379;SDS011;1703;51.964;7.642;2023-04-25T00:28:39;17.97;;;5.80;;
3379;SDS011;1703;51.964;7.642;2023-04-25T00:31:06;17.77;;;5.70;;
3379;SDS011;1703;51.964;7.642;2023-04-25T00:33:33;9.40;;;4.73;;
3379;SDS011;1703;51.964;7.642;2023-04-25T00:36:00;11.10;;;6.50;;
3379;SDS011;1703;51.964;7.642;2023-04-25T00:38:27;12.60;;;5.63;;
3379;SDS011;1703;51.964;7.642;2023-04-25T00:40:53;22.50;;;5.53;;
3379;SDS011;1703;51.964;7.642;2023-04-25T00:43:20;10.40;;;4.43;;
3379;SDS011;1703;51.964;7.642;2023-04-25T00:45:49;8.07;;;4.57;;
3379;SDS011;1703;51.964;7.642;2023-04-25T00:48:18;7.30;;;4.90;;
3379;SDS011;1703;51.964;7.642;2023-04-25T00:50:49;12.57;;;5.00;;
3379;SDS011;1703;51.964;7.642;2023-04-25T00:53:19;13.30;;;4.93;;
3379;SDS011;1703;51.964;7.642;2023-04-25T00:55:46;6.60;;;4.13;;
3379;SDS011;1703;51.964;7.642;2023-04-25T00:58:13;9.53;;;5.30;;
3379;SDS011;1703;51.964;7.642;2023-04-25T01:00:40;4.63;;;3.53;;
3379;SDS011;1703;51.964;7.642;2023-04-25T01:03:09;7.63;;;4.77;;
3379;SDS011;1703;51.964;7.642;2023-04-25T01:05:36;7.87;;;4.20;;
3379;SDS011;1703;51.964;7.642;2023-04-25T01:08:02;9.40;;;3.70;;
3379;SDS011;1703;51.964;7.642;2023-04-25T01:10:30;7.53;;;3.67;;
3379;SDS011;1703;51.964;7.642;2023-04-25T01:12:56;9.17;;;4.80;;
3379;SDS011;1703;51.964;7.642;2023-04-25T01:15:23;5.67;;;4.63;;
3379;SDS011;1703;51.964;7.642;2023-04-25T01:17:51;12.10;;;4.80;;
3379;SDS011;1703;51.964;7.642;2023-04-25T01:20:22;7.77;;;4.17;;
3379;SDS011;1703;51.964;7.642;2023-04-25T01:22:50;8.43;;;4.03;;
3379;SDS011;1703;51.964;7.642;2023-04-25T01:25:18;5.00;;;4.40;;
3379;SDS011;1703;51.964;7.642;2023-04-25T01:27:46;8.23;;;4.57;;
3379;SDS011;1703;51.964;7.642;2023-04-25T01:30:14;9.93;;;4.87;;
3379;SDS011;1703;51.964;7.642;2023-04-25T01:32:41;6.87;;;3.50;;
3379;SDS011;1703;51.964;7.642;2023-04-25T01:35:09;5.90;;;3.77;;
3379;SDS011;1703;51.964;7.642;2023-04-25T01:37:37;9.00;;;4.70;;
3379;SDS011;1703;51.964;7.642;2023-04-25T01:40:07;7.10;;;3.33;;
3379;SDS011;1703;51.964;7.642;2023-04-25T01:42:34;9.47;;;4.20;;
3379;SDS011;1703;51.964;7.642;2023-04-25T01:45:03;6.77;;;3.63;;
3379;SDS011;1703;51.964;7.642;2023-04-25T01:47:31;8.63;;;3.90;;
3379;SDS011;1703;51.964;7.642;2023-04-25T01:50:00;14.03;;;3.20;;
3379;SDS011;1703;51.964;7.642;2023-04-25T01:52:27;5.63;;;3.80;;
3379;SDS011;1703;51.964;7.642;2023-04-25T01:54:53;5.97;;;3.20;;
3379;SDS011;1703;51.964;7.642;2023-04-25T01:57:22;6.93;;;3.33;;
3379;SDS011;1703;51.964;7.642;2023-04-25T01:59:49;6.30;;;3.63;;
3379;SDS011;1703;51.964;7.642;2023-04-25T02:02:37;6.73;;;3.17;;
3379;SDS011;1703;51.964;7.642;2023-04-25T02:05:08;7.53;;;3.30;;
3379;SDS011;1703;51.964;7.642;2023-04-25T02:07:38;19.20;;;4.13;;
3379;SDS011;1703;51.964;7.642;2023-04-25T02:10:06;19.63;;;4.30;;
3379;SDS011;1703;51.964;7.642;2023-04-25T02:12:40;12.53;;;3.83;;
3379;SDS011;1703;51.964;7.642;2023-04-25T02:15:34;14.87;;;3.43;;
3379;SDS011;1703;51.964;7.642;2023-04-25T02:18:13;13.60;;;3.83;;
3379;SDS011;1703;51.964;7.642;2023-04-25T02:20:41;13.93;;;3.87;;
3379;SDS011;1703;51.964;7.642;2023-04-25T02:23:09;11.73;;;3.30;;
3379;SDS011;1703;51.964;7.642;2023-04-25T02:25:36;18.17;;;3.80;;
3379;SDS011;1703;51.964;7.642;2023-04-25T02:28:04;9.23;;;3.10;;
3379;SDS011;1703;51.964;7.642;2023-04-25T02:30:31;9.93;;;3.40;;
3379;SDS011;1703;51.964;7.642;2023-04-25T02:32:58;18.17;;;4.57;;
3379;SDS011;1703;51.964;7.642;2023-04-25T02:35:25;19.43;;;4.07;;
3379;SDS011;1703;51.964;7.642;2023-04-25T02:37:53;10.53;;;2.73;;
3379;SDS011;1703;51.964;7.642;2023-04-25T02:40:20;10.10;;;3.70;;
3379;SDS011;1703;51.964;7.642;2023-04-25T02:42:46;15.83;;;3.77;;
3379;SDS011;1703;51.964;7.642;2023-04-25T02:45:15;13.23;;;3.37;;
3379;SDS011;1703;51.964;7.642;2023-04-25T02:47:41;9.87;;;4.10;;
3379;SDS011;1703;51.964;7.642;2023-04-25T02:50:10;11.03;;;2.93;;
3379;SDS011;1703;51.964;7.642;2023-04-25T02:52:38;17.33;;;3.10;;
3379;SDS011;1703;51.964;7.642;2023-04-25T02:55:13;16.53;;;4.03;;
3379;SDS011;1703;51.964;7.642;2023-04-25T02:57:41;9.17;;;4.13;;
3379;SDS011;1703;51.964;7.642;2023-04-25T03:00:12;9.80;;;4.00;;
3379;SDS011;1703;51.964;7.642;2023-04-25T03:02:41;11.50;;;3.43;;
3379;SDS011;1703;51.964;7.642;2023-04-25T03:05:08;10.63;;;3.67;;
3379;SDS011;1703;51.964;7.642;2023-04-25T03:07:36;10.10;;;3.97;;
3379;SDS011;1703;51.964;7.642;2023-04-25T03:10:05;12.43;;;3.77;;
3379;SDS011;1703;51.964;7.642;2023-04-25T03:12:34;10.93;;;3.87;;
3379;SDS011;1703;51.964;7.642;2023-04-25T03:15:01;13.60;;;4.00;;
3379;SDS011;1703;51.964;7.642;2023-04-25T03:17:28;10.17;;;3.40;;
3379;SDS011;1703;51.964;7.642;2023-04-25T03:19:56;23.37;;;5.90;;
3379;SDS011;1703;51.964;7.642;2023-04-25T03:22:23;15.40;;;4.17;;
3379;SDS011;1703;51.964;7.642;2023-04-25T03:24:51;9.23;;;3.67;;
3379;SDS011;1703;51.964;7.642;2023-04-25T03:27:18;25.40;;;4.80;;
3379;SDS011;1703;51.964;7.642;2023-04-25T03:29:45;10.30;;;3.40;;
3379;SDS011;1703;51.964;7.642;2023-04-25T03:32:12;13.80;;;3.83;;
3379;SDS011;1703;51.964;7.642;2023-04-25T03:34:39;31.43;;;4.60;;
3379;SDS011;1703;51.964;7.642;2023-04-25T03:37:08;10.37;;;4.20;;
3379;SDS011;1703;51.964;7.642;2023-04-25T03:39:37;11.63;;;3.83;;
3379;SDS011;1703;51.964;7.642;2023-04-25T03:42:05;12.07;;;4.00;;
3379;SDS011;1703;51.964;7.642;2023-04-25T03:44:32;21.90;;;4.70;;
3379;SDS011;1703;51.964;7.642;2023-04-25T03:47:00;12.10;;;3.63;;
3379;SDS011;1703;51.964;7.642;2023-04-25T03:49:26;15.57;;;4.90;;
3379;SDS011;1703;51.964;7.642;2023-04-25T03:51:59;15.20;;;5.07;;
3379;SDS011;1703;51.964;7.642;2023-04-25T03:54:30;18.10;;;4.10;;
3379;SDS011;1703;51.964;7.642;2023-04-25T03:57:07;10.87;;;3.87;;
3379;SDS011;1703;51.964;7.642;2023-04-25T03:59:37;17.53;;;6.67;;
3379;SDS011;1703;51.964;7.642;2023-04-25T04:02:05;8.23;;;4.33;;
3379;SDS011;1703;51.964;7.642;2023-04-25T04:04:35;12.53;;;4.27;;
3379;SDS011;1703;51.964;7.642;2023-04-25T04:07:02;15.20;;;4.33;;
3379;SDS011;1703;51.964;7.642;2023-04-25T04:09:34;14.17;;;3.37;;
3379;SDS011;1703;51.964;7.642;2023-04-25T04:12:06;15.03;;;4.93;;
3379;SDS011;1703;51.964;7.642;2023-04-25T04:14:34;13.03;;;3.90;;
3379;SDS011;1703;51.964;7.642;2023-04-25T04:17:01;16.47;;;5.13;;
3379;SDS011;1703;51.964;7.642;2023-04-25T04:19:28;12.07;;;3.93;;
3379;SDS011;1703;51.964;7.642;2023-04-25T04:22:07;19.63;;;4.30;;
3379;SDS011;1703;51.964;7.642;2023-04-25T04:24:35;13.87;;;4.00;;
3379;SDS011;1703;51.964;7.642;2023-04-25T04:27:05;19.47;;;3.67;;
3379;SDS011;1703;51.964;7.642;2023-04-25T04:29:38;13.03;;;4.03;;
3379;SDS011;1703;51.964;7.642;2023-04-25T04:32:10;15.67;;;4.93;;
3379;SDS011;1703;51.964;7.642;2023-04-25T04:34:37;20.13;;;4.73;;
3379;SDS011;1703;51.964;7.642;2023-04-25T04:37:05;14.00;;;5.03;;
3379;SDS011;1703;51.964;7.642;2023-04-25T04:39:32;7.70;;;3.63;;
3379;SDS011;1703;51.964;7.642;2023-04-25T04:42:14;15.87;;;3.47;;
3379;SDS011;1703;51.964;7.642;2023-04-25T04:44:52;14.50;;;3.93;;
3379;SDS011;1703;51.964;7.642;2023-04-25T04:47:25;12.67;;;5.27;;
3379;SDS011;1703;51.964;7.642;2023-04-25T04:50:16;13.67;;;6.07;;
3379;SDS011;1703;51.964;7.642;2023-04-25T04:53:06;11.57;;;4.80;;
3379;SDS011;1703;51.964;7.642;2023-04-25T04:55:36;11.87;;;3.93;;
3379;SDS011;1703;51.964;7.642;2023-04-25T04:58:23;18.63;;;5.53;;
3379;SDS011;1703;51.964;7.642;2023-04-25T05:01:06;30.07;;;5.23;;
3379;SDS011;1703;51.964;7.642;2023-04-25T05:03:52;15.23;;;5.13;;
3379;SDS011;1703;51.964;7.642;2023-04-25T05:06:37;13.97;;;4.63;;
3379;SDS011;1703;51.964;7.642;2023-04-25T05:09:28;17.30;;;4.53;;
3379;SDS011;1703;51.964;7.642;2023-04-25T05:12:04;12.73;;;4.90;;
3379;SDS011;1703;51.964;7.642;2023-04-25T05:15:11;18.53;;;4.80;;
3379;SDS011;1703;51.964;7.642;2023-04-25T05:17:58;16.07;;;4.70;;
3379;SDS011;1703;51.964;7.642;2023-04-25T05:20:38;11.97;;;4.70;;
3379;SDS011;1703;51.964;7.642;2023-04-25T05:23:34;12.93;;;4.90;;
3379;SDS011;1703;51.964;7.642;2023-04-25T05:26:17;15.20;;;4.27;;
3379;SDS011;1703;51.964;7.642;2023-04-25T05:28:58;9.80;;;4.60;;
3379;SDS011;1703;51.964;7.642;2023-04-25T05:31:54;20.50;;;4.57;;
3379;SDS011;1703;51.964;7.642;2023-04-25T05:34:21;12.07;;;3.73;;
3379;SDS011;1703;51.964;7.642;2023-04-25T05:36:57;15.40;;;4.63;;
3379;SDS011;1703;51.964;7.642;2023-04-25T05:39:24;8.57;;;4.13;;
3379;SDS011;1703;51.964;7.642;2023-04-25T05:42:06;11.70;;;3.47;;
3379;SDS011;1703;51.964;7.642;2023-04-25T05:44:52;12.73;;;4.30;;
3379;SDS011;1703;51.964;7.642;2023-04-25T05:47:29;12.77;;;4.43;;
3379;SDS011;1703;51.964;7.642;2023-04-25T05:50:15;15.70;;;4.40;;
3379;SDS011;1703;51.964;7.642;2023-04-25T05:53:02;15.40;;;3.50;;
3379;SDS011;1703;51.964;7.642;2023-04-25T05:55:42;20.27;;;3.77;;
3379;SDS011;1703;51.964;7.642;2023-04-25T05:58:23;11.33;;;4.27;;
3379;SDS011;1703;51.964;7.642;2023-04-25T06:00:50;21.40;;;3.80;;
3379;SDS011;1703;51.964;7.642;2023-04-25T06:03:19;20.10;;;4.63;;
3379;SDS011;1703;51.964;7.642;2023-04-25T06:05:46;12.27;;;4.80;;
3379;SDS011;1703;51.964;7.642;2023-04-25T06:08:13;14.40;;;3.13;;
3379;SDS011;1703;51.964;7.642;2023-04-25T06:10:40;11.57;;;3.40;;
3379;SDS011;1703;51.964;7.642;2023-04-25T06:13:07;24.57;;;4.30;;
3379;SDS011;1703;51.964;7.642;2023-04-25T06:15:35;18.20;;;4.37;;
3379;SDS011;1703;51.964;7.642;2023-04-25T06:18:02;10.00;;;3.33;;
3379;SDS011;1703;51.964;7.642;2023-04-25T06:20:30;8.43;;;3.83;;
3379;SDS011;1703;51.964;7.642;2023-04-25T06:22:59;13.27;;;3.10;;
3379;SDS011;1703;51.964;7.642;2023-04-25T06:25:36;16.77;;;5.13;;
3379;SDS011;1703;51.964;7.642;2023-04-25T06:28:03;13.10;;;2.53;;
3379;SDS011;1703;51.964;7.642;2023-04-25T06:30:31;12.33;;;2.77;;
3379;SDS011;1703;51.964;7.642;2023-04-25T06:33:04;14.77;;;3.87;;
3379;SDS011;1703;51.964;7.642;2023-04-25T06:35:32;7.37;;;3.33;;
3379;SDS011;1703;51.964;7.642;2023-04-25T06:37:59;15.97;;;3.83;;
3379;SDS011;1703;51.964;7.642;2023-04-25T06:40:27;7.40;;;3.10;;
3379;SDS011;1703;51.964;7.642;2023-04-25T06:42:55;8.60;;;2.70;;
3379;SDS011;1703;51.964;7.642;2023-04-25T06:45:36;3.43;;;2.20;;
3379;SDS011;1703;51.964;7.642;2023-04-25T06:48:03;13.97;;;3.27;;
3379;SDS011;1703;51.964;7.642;2023-04-25T06:50:30;13.07;;;3.57;;
3379;SDS011;1703;51.964;7.642;2023-04-25T06:52:58;13.43;;;3.97;;
3379;SDS011;1703;51.964;7.642;2023-04-25T06:55:27;12.73;;;2.77;;
3379;SDS011;1703;51.964;7.642;2023-04-25T06:58:05;16.63;;;3.70;;
3379;SDS011;1703;51.964;7.642;2023-04-25T07:00:51;8.53;;;2.70;;
3379;SDS011;1703;51.964;7.642;2023-04-25T07:03:20;11.33;;;3.10;;
3379;SDS011;1703;51.964;7.642;2023-04-25T07:05:49;16.77;;;3.63;;
3379;SDS011;1703;51.964;7.642;2023-04-25T07:08:17;16.87;;;3.43;;
3379;SDS011;1703;51.964;7.642;2023-04-25T07:10:45;8.97;;;3.43;;
3379;SDS011;1703;51.964;7.642;2023-04-25T07:13:11;7.87;;;3.07;;
3379;SDS011;1703;51.964;7.642;2023-04-25T07:15:38;13.93;;;3.67;;
3379;SDS011;1703;51.964;7.642;2023-04-25T07:18:06;7.07;;;2.83;;
3379;SDS011;1703;51.964;7.642;2023-04-25T07:20:32;6.67;;;2.63;;
3379;SDS011;1703;51.964;7.642;2023-04-25T07:23:01;31.17;;;3.93;;
3379;SDS011;1703;51.964;7.642;2023-04-25T07:25:29;10.77;;;3.63;;
3379;SDS011;1703;51.964;7.642;2023-04-25T07:27:57;10.53;;;3.57;;
3379;SDS011;1703;51.964;7.642;2023-04-25T07:30:25;11.90;;;3.20;;
3379;SDS011;1703;51.964;7.642;2023-04-25T07:32:53;12.00;;;2.97;;
3379;SDS011;1703;51.964;7.642;2023-04-25T07:35:20;8.10;;;2.83;;
3379;SDS011;1703;51.964;7.642;2023-04-25T07:37:47;9.27;;;2.50;;
3379;SDS011;1703;51.964;7.642;2023-04-25T07:40:17;10.43;;;2.40;;
3379;SDS011;1703;51.964;7.642;2023-04-25T07:42:52;7.40;;;3.10;;
3379;SDS011;1703;51.964;7.642;2023-04-25T07:45:30;18.67;;;3.57;;
3379;SDS011;1703;51.964;7.642;2023-04-25T07:47:57;9.10;;;3.40;;
3379;SDS011;1703;51.964;7.642;2023-04-25T07:50:25;8.80;;;2.30;;
3379;SDS011;1703;51.964;7.642;2023-04-25T07:52:52;8.27;;;3.23;;
3379;SDS011;1703;51.964;7.642;2023-04-25T07:55:28;13.00;;;2.93;;
3379;SDS011;1703;51.964;7.642;2023-04-25T07:58:14;12.80;;;2.30;;
3379;SDS011;1703;51.964;7.642;2023-04-25T08:00:46;9.70;;;3.50;;
3379;SDS011;1703;51.964;7.642;2023-04-25T08:03:42;7.33;;;2.40;;
3379;SDS011;1703;51.964;7.642;2023-04-25T08:06:16;11.07;;;3.20;;
3379;SDS011;1703;51.964;7.642;2023-04-25T08:09:04;11.33;;;3.27;;
3379;SDS011;1703;51.964;7.642;2023-04-25T08:11:36;15.13;;;4.30;;
3379;SDS011;1703;51.964;7.642;2023-04-25T08:14:07;11.00;;;2.70;;
3379;SDS011;1703;51.964;7.642;2023-04-25T08:16:34;17.27;;;3.80;;
3379;SDS011;1703;51.964;7.642;2023-04-25T08:19:01;6.63;;;3.70;;
3379;SDS011;1703;51.964;7.642;2023-04-25T08:21:28;15.27;;;2.97;;
3379;SDS011;1703;51.964;7.642;2023-04-25T08:23:59;11.07;;;3.07;;
3379;SDS011;1703;51.964;7.642;2023-04-25T08:26:29;10.97;;;3.33;;
3379;SDS011;1703;51.964;7.642;2023-04-25T08:28:56;12.23;;;2.33;;
3379;SDS011;1703;51.964;7.642;2023-04-25T08:31:25;6.57;;;1.90;;
3379;SDS011;1703;51.964;7.642;2023-04-25T08:33:58;5.00;;;2.60;;
3379;SDS011;1703;51.964;7.642;2023-04-25T08:36:33;13.33;;;2.07;;
3379;SDS011;1703;51.964;7.642;2023-04-25T08:39:00;7.43;;;1.90;;
3379;SDS011;1703;51.964;7.642;2023-04-25T08:41:33;6.43;;;2.20;;
3379;SDS011;1703;51.964;7.642;2023-04-25T08:44:04;5.43;;;1.43;;
3379;SDS011;1703;51.964;7.642;2023-04-25T08:46:34;9.47;;;2.37;;
3379;SDS011;1703;51.964;7.642;2023-04-25T08:49:10;8.93;;;2.57;;
3379;SDS011;1703;51.964;7.642;2023-04-25T08:51:40;15.33;;;2.53;;
3379;SDS011;1703;51.964;7.642;2023-04-25T08:54:12;13.30;;;2.10;;
3379;SDS011;1703;51.964;7.642;2023-04-25T08:56:40;6.43;;;1.97;;
3379;SDS011;1703;51.964;7.642;2023-04-25T08:59:10;11.50;;;2.17;;
3379;SDS011;1703;51.964;7.642;2023-04-25T09:01:42;6.83;;;1.50;;
3379;SDS011;1703;51.964;7.642;2023-04-25T09:04:10;10.23;;;1.87;;
3379;SDS011;1703;51.964;7.642;2023-04-25T09:06:39;6.23;;;1.50;;
3379;SDS011;1703;51.964;7.642;2023-04-25T09:09:07;12.00;;;2.13;;
3379;SDS011;1703;51.964;7.642;2023-04-25T09:11:36;6.20;;;2.10;;
3379;SDS011;1703;51.964;7.642;2023-04-25T09:14:11;6.27;;;2.10;;
3379;SDS011;1703;51.964;7.642;2023-04-25T09:17:13;6.70;;;1.60;;
3379;SDS011;1703;51.964;7.642;2023-04-25T09:19:52;11.87;;;3.60;;
3379;SDS011;1703;51.964;7.642;2023-04-25T09:22:30;8.60;;;1.50;;
3379;SDS011;1703;51.964;7.642;2023-04-25T09:24:57;3.43;;;1.93;;
3379;SDS011;1703;51.964;7.642;2023-04-25T09:27:29;7.17;;;1.60;;
3379;SDS011;1703;51.964;7.642;2023-04-25T09:30:10;10.27;;;3.87;;
3379;SDS011;1703;51.964;7.642;2023-04-25T09:33:05;5.07;;;2.00;;
3379;SDS011;1703;51.964;7.642;2023-04-25T09:35:35;3.97;;;1.43;;
3379;SDS011;1703;51.964;7.642;2023-04-25T09:38:07;2.03;;;1.03;;
3379;SDS011;1703;51.964;7.642;2023-04-25T09:40:56;5.60;;;1.20;;
3379;SDS011;1703;51.964;7.642;2023-04-25T09:43:44;2.00;;;1.70;;
3379;SDS011;1703;51.964;7.642;2023-04-25T09:46:13;2.17;;;1.10;;
3379;SDS011;1703;51.964;7.642;2023-04-25T09:48:49;7.47;;;1.20;;
3379;SDS011;1703;51.964;7.642;2023-04-25T09:51:25;6.07;;;1.37;;
3379;SDS011;1703;51.964;7.642;2023-04-25T09:53:53;2.60;;;1.63;;
3379;SDS011;1703;51.964;7.642;2023-04-25T09:56:39;3.30;;;1.40;;
3379;SDS011;1703;51.964;7.642;2023-04-25T09:59:06;2.73;;;1.20;;
3379;SDS011;1703;51.964;7.642;2023-04-25T10:01:36;6.60;;;1.80;;
3379;SDS011;1703;51.964;7.642;2023-04-25T10:04:18;14.10;;;1.80;;
3379;SDS011;1703;51.964;7.642;2023-04-25T10:07:03;5.80;;;1.40;;
3379;SDS011;1703;51.964;7.642;2023-04-25T10:09:32;4.93;;;1.47;;
3379;SDS011;1703;51.964;7.642;2023-04-25T10:12:02;4.63;;;1.47;;
3379;SDS011;1703;51.964;7.642;2023-04-25T10:14:29;4.60;;;1.33;;
3379;SDS011;1703;51.964;7.642;2023-04-25T10:16:57;2.40;;;0.80;;
3379;SDS011;1703;51.964;7.642;2023-04-25T10:19:26;4.40;;;1.60;;
3379;SDS011;1703;51.964;7.642;2023-04-25T10:21:55;7.40;;;2.50;;
3379;SDS011;1703;51.964;7.642;2023-04-25T10:24:28;3.90;;;1.77;;
3379;SDS011;1703;51.964;7.642;2023-04-25T10:26:55;2.97;;;1.47;;
3379;SDS011;1703;51.964;7.642;2023-04-25T10:29:24;16.00;;;2.03;;
3379;SDS011;1703;51.964;7.642;2023-04-25T10:31:51;16.03;;;1.90;;
3379;SDS011;1703;51.964;7.642;2023-04-25T10:34:18;4.67;;;2.00;;
3379;SDS011;1703;51.964;7.642;2023-04-25T10:36:51;6.93;;;2.03;;
3379;SDS011;1703;51.964;7.642;2023-04-25T10:39:22;4.50;;;1.73;;
3379;SDS011;1703;51.964;7.642;2023-04-25T10:41:53;8.03;;;2.07;;
3379;SDS011;1703;51.964;7.642;2023-04-25T10:44:23;6.97;;;1.73;;
3379;SDS011;1703;51.964;7.642;2023-04-25T10:46:54;12.57;;;1.63;;
3379;SDS011;1703;51.964;7.642;2023-04-25T10:49:32;3.23;;;1.70;;
3379;SDS011;1703;51.964;7.642;2023-04-25T10:52:14;7.10;;;2.10;;
3379;SDS011;1703;51.964;7.642;2023-04-25T10:54:48;6.57;;;1.30;;
3379;SDS011;1703;51.964;7.642;2023-04-25T10:57:31;2.63;;;1.20;;
3379;SDS011;1703;51.964;7.642;2023-04-25T11:00:05;8.33;;;1.60;;
3379;SDS011;1703;51.964;7.642;2023-04-25T11:02:42;6.10;;;2.50;;
3379;SDS011;1703;51.964;7.642;2023-04-25T11:05:15;3.93;;;1.40;;
3379;SDS011;1703;51.964;7.642;2023-04-25T11:07:49;5.47;;;1.73;;
3379;SDS011;1703;51.964;7.642;2023-04-25T11:10:17;10.23;;;2.30;;
3379;SDS011;1703;51.964;7.642;2023-04-25T11:12:45;4.40;;;1.70;;
3379;SDS011;1703;51.964;7.642;2023-04-25T11:15:12;10.30;;;1.63;;
3379;SDS011;1703;51.964;7.642;2023-04-25T11:17:40;5.90;;;1.53;;
3379;SDS011;1703;51.964;7.642;2023-04-25T11:20:08;3.90;;;1.80;;
3379;SDS011;1703;51.964;7.642;2023-04-25T11:22:37;7.43;;;1.57;;
3379;SDS011;1703;51.964;7.642;2023-04-25T11:25:07;2.50;;;1.63;;
3379;SDS011;1703;51.964;7.642;2023-04-25T11:27:37;3.13;;;1.60;;
3379;SDS011;1703;51.964;7.642;2023-04-25T11:30:12;12.57;;;1.67;;
3379;SDS011;1703;51.964;7.642;2023-04-25T11:32:41;6.20;;;1.60;;
3379;SDS011;1703;51.964;7.642;2023-04-25T11:35:08;9.90;;;1.87;;
3379;SDS011;1703;51.964;7.642;2023-04-25T11:37:35;9.07;;;1.50;;
3379;SDS011;1703;51.964;7.642;2023-04-25T11:40:02;6.93;;;1.60;;
3379;SDS011;1703;51.964;7.642;2023-04-25T11:42:32;9.73;;;2.33;;
3379;SDS011;1703;51.964;7.642;2023-04-25T11:44:59;9.47;;;1.73;;
3379;SDS011;1703;51.964;7.642;2023-04-25T11:47:28;3.53;;;1.67;;
3379;SDS011;1703;51.964;7.642;2023-04-25T11:49:57;5.33;;;1.83;;
3379;SDS011;1703;51.964;7.642;2023-04-25T11:52:24;1.63;;;0.70;;
3379;SDS011;1703;51.964;7.642;2023-04-25T11:55:00;3.60;;;1.17;;
3379;SDS011;1703;51.964;7.642;2023-04-25T11:57:30;1.93;;;0.90;;
3379;SDS011;1703;51.964;7.642;2023-04-25T12:00:04;2.03;;;1.00;;
3379;SDS011;1703;51.964;7.642;2023-04-25T12:02:37;2.60;;;0.83;;
3379;SDS011;1703;51.964;7.642;2023-04-25T12:05:06;4.10;;;0.80;;
3379;SDS011;1703;51.964;7.642;2023-04-25T12:07:34;1.50;;;0.80;;
3379;SDS011;1703;51.964;7.642;2023-04-25T12:10:05;0.70;;;0.60;;
3379;SDS011;1703;51.964;7.642;2023-04-25T12:12:35;3.50;;;1.07;;
3379;SDS011;1703;51.964;7.642;2023-04-25T12:15:09;8.63;;;1.80;;
3379;SDS011;1703;51.964;7.642;2023-04-25T12:17:37;2.93;;;0.70;;
3379;SDS011;1703;51.964;7.642;2023-04-25T12:20:08;1.50;;;0.93;;
3379;SDS011;1703;51.964;7.642;2023-04-25T12:22:36;2.17;;;1.50;;
3379;SDS011;1703;51.964;7.642;2023-04-25T12:25:03;1.37;;;1.00;;
3379;SDS011;1703;51.964;7.642;2023-04-25T12:27:31;1.93;;;1.10;;
3379;SDS011;1703;51.964;7.642;2023-04-25T12:30:00;5.97;;;1.10;;
3379;SDS011;1703;51.964;7.642;2023-04-25T12:32:26;1.87;;;1.00;;
3379;SDS011;1703;51.964;7.642;2023-04-25T12:34:53;8.83;;;1.80;;
3379;SDS011;1703;51.964;7.642;2023-04-25T12:37:20;3.53;;;1.23;;
3379;SDS011;1703;51.964;7.642;2023-04-25T12:39:47;4.03;;;0.90;;
3379;SDS011;1703;51.964;7.642;2023-04-25T12:42:14;1.03;;;0.83;;
3379;SDS011;1703;51.964;7.642;2023-04-25T12:44:41;3.10;;;1.20;;
3379;SDS011;1703;51.964;7.642;2023-04-25T12:47:09;4.93;;;1.70;;
3379;SDS011;1703;51.964;7.642;2023-04-25T12:49:36;1.63;;;1.10;;
3379;SDS011;1703;51.964;7.642;2023-04-25T12:52:03;2.10;;;1.13;;
3379;SDS011;1703;51.964;7.642;2023-04-25T12:54:30;4.20;;;1.40;;
3379;SDS011;1703;51.964;7.642;2023-04-25T12:56:56;4.43;;;1.50;;
3379;SDS011;1703;51.964;7.642;2023-04-25T12:59:24;2.83;;;1.07;;
3379;SDS011;1703;51.964;7.642;2023-04-25T13:01:50;3.20;;;1.10;;
3379;SDS011;1703;51.964;7.642;2023-04-25T13:04:19;2.30;;;1.20;;
3379;SDS011;1703;51.964;7.642;2023-04-25T13:06:46;4.10;;;1.80;;
3379;SDS011;1703;51.964;7.642;2023-04-25T13:09:13;5.60;;;1.80;;
3379;SDS011;1703;51.964;7.642;2023-04-25T13:11:40;4.30;;;1.47;;
3379;SDS011;1703;51.964;7.642;2023-04-25T13:14:07;5.07;;;1.30;;
3379;SDS011;1703;51.964;7.642;2023-04-25T13:16:34;5.93;;;1.60;;
3379;SDS011;1703;51.964;7.642;2023-04-25T13:19:01;3.30;;;1.60;;
3379;SDS011;1703;51.964;7.642;2023-04-25T13:21:30;5.03;;;2.20;;
3379;SDS011;1703;51.964;7.642;2023-04-25T13:23:58;2.97;;;1.60;;
3379;SDS011;1703;51.964;7.642;2023-04-25T13:26:25;4.20;;;2.13;;
3379;SDS011;1703;51.964;7.642;2023-04-25T13:28:52;2.60;;;1.17;;
3379;SDS011;1703;51.964;7.642;2023-04-25T13:31:19;2.23;;;1.20;;
3379;SDS011;1703;51.964;7.642;2023-04-25T13:33:46;5.40;;;1.40;;
3379;SDS011;1703;51.964;7.642;2023-04-25T13:36:12;6.00;;;1.00;;
3379;SDS011;1703;51.964;7.642;2023-04-25T13:38:41;10.60;;;1.30;;
3379;SDS011;1703;51.964;7.642;2023-04-25T13:41:08;5.90;;;1.93;;
3379;SDS011;1703;51.964;7.642;2023-04-25T13:43:36;5.50;;;1.40;;
3379;SDS011;1703;51.964;7.642;2023-04-25T13:46:03;4.57;;;1.67;;
3379;SDS011;1703;51.964;7.642;2023-04-25T13:48:30;4.40;;;1.93;;
3379;SDS011;1703;51.964;7.642;2023-04-25T13:50:57;3.97;;;1.80;;
3379;SDS011;1703;51.964;7.642;2023-04-25T13:53:23;5.23;;;1.20;;
3379;SDS011;1703;51.964;7.642;2023-04-25T13:55:52;5.00;;;1.60;;
3379;SDS011;1703;51.964;7.642;2023-04-25T13:58:19;1.90;;;0.90;;
3379;SDS011;1703;51.964;7.642;2023-04-25T14:00:46;3.17;;;1.10;;
3379;SDS011;1703;51.964;7.642;2023-04-25T14:03:13;6.87;;;2.07;;
3379;SDS011;1703;51.964;7.642;2023-04-25T14:05:40;8.53;;;1.20;;
3379;SDS011;1703;51.964;7.642;2023-04-25T14:08:07;2.60;;;1.20;;
3379;SDS011;1703;51.964;7.642;2023-04-25T14:10:35;3.03;;;1.30;;
3379;SDS011;1703;51.964;7.642;2023-04-25T14:13:03;4.40;;;1.27;;
3379;SDS011;1703;51.964;7.642;2023-04-25T14:15:32;2.70;;;1.10;;
3379;SDS011;1703;51.964;7.642;2023-04-25T14:17:59;2.50;;;1.70;;
3379;SDS011;1703;51.964;7.642;2023-04-25T14:20:27;1.40;;;1.10;;
3379;SDS011;1703;51.964;7.642;2023-04-25T14:22:54;2.30;;;1.20;;
3379;SDS011;1703;51.964;7.642;2023-04-25T14:25:21;6.77;;;1.80;;
3379;SDS011;1703;51.964;7.642;2023-04-25T14:27:48;4.23;;;1.00;;
3379;SDS011;1703;51.964;7.642;2023-04-25T14:30:17;3.23;;;1.20;;
3379;SDS011;1703;51.964;7.642;2023-04-25T14:32:45;1.20;;;1.10;;
3379;SDS011;1703;51.964;7.642;2023-04-25T14:35:12;4.93;;;1.57;;
3379;SDS011;1703;51.964;7.642;2023-04-25T14:37:40;6.07;;;1.70;;
3379;SDS011;1703;51.964;7.642;2023-04-25T14:40:07;5.23;;;1.53;;
3379;SDS011;1703;51.964;7.642;2023-04-25T14:42:35;4.20;;;1.20;;
3379;SDS011;1703;51.964;7.642;2023-04-25T14:45:02;5.80;;;1.70;;
3379;SDS011;1703;51.964;7.642;2023-04-25T14:47:33;4.20;;;1.40;;
3379;SDS011;1703;51.964;7.642;2023-04-25T14:50:01;2.57;;;1.23;;
3379;SDS011;1703;51.964;7.642;2023-04-25T14:52:29;5.27;;;1.80;;
3379;SDS011;1703;51.964;7.642;2023-04-25T14:54:56;4.93;;;1.20;;
3379;SDS011;1703;51.964;7.642;2023-04-25T14:57:25;5.17;;;1.27;;
3379;SDS011;1703;51.964;7.642;2023-04-25T14:59:51;3.53;;;1.67;;
3379;SDS011;1703;51.964;7.642;2023-04-25T15:02:19;7.70;;;1.73;;
3379;SDS011;1703;51.964;7.642;2023-04-25T15:04:47;4.00;;;1.47;;
3379;SDS011;1703;51.964;7.642;2023-04-25T15:07:14;2.50;;;1.00;;
3379;SDS011;1703;51.964;7.642;2023-04-25T15:09:41;3.30;;;1.10;;
3379;SDS011;1703;51.964;7.642;2023-04-25T15:12:08;1.93;;;1.17;;
3379;SDS011;1703;51.964;7.642;2023-04-25T15:14:35;3.80;;;1.37;;
3379;SDS011;1703;51.964;7.642;2023-04-25T15:17:02;7.63;;;0.80;;
3379;SDS011;1703;51.964;7.642;2023-04-25T15:19:29;1.20;;;0.70;;
3379;SDS011;1703;51.964;7.642;2023-04-25T15:21:57;1.63;;;0.87;;
3379;SDS011;1703;51.964;7.642;2023-04-25T15:24:25;9.80;;;5.90;;
3379;SDS011;1703;51.964;7.642;2023-04-25T15:26:52;7.23;;;2.80;;
3379;SDS011;1703;51.964;7.642;2023-04-25T15:29:19;3.00;;;1.33;;
3379;SDS011;1703;51.964;7.642;2023-04-25T15:31:46;3.10;;;1.13;;